createdAt,value
2018-12-07T00:00:21.677Z,31.63
2018-12-07T00:02:50.002Z,31.43
2018-12-07T00:05:18.260Z,32.47
2018-12-07T00:07:46.532Z,31.10
2018-12-07T00:10:14.817Z,28.93
2018-12-07T00:12:43.035Z,28.60
2018-12-07T00:15:11.311Z,27.30
2018-12-07T00:17:39.637Z,28.43
2018-12-07T00:20:08.852Z,26.73
2018-12-07T00:22:37.107Z,28.17
2018-12-07T00:25:17.793Z,24.97
2018-12-07T00:27:46.169Z,26.37
2018-12-07T00:30:14.410Z,25.30
2018-12-07T00:32:42.842Z,24.30
2018-12-07T00:35:11.069Z,24.93
2018-12-07T00:37:39.325Z,25.50
2018-12-07T00:40:07.895Z,25.40
2018-12-07T00:42:36.147Z,24.93
2018-12-07T00:45:05.250Z,24.57
2018-12-07T00:47:33.497Z,22.87
2018-12-07T00:50:01.728Z,23.10
2018-12-07T00:52:30.003Z,23.63
2018-12-07T00:54:58.226Z,23.20
2018-12-07T00:57:26.484Z,23.07
2018-12-07T00:59:54.734Z,23.00
2018-12-07T01:02:22.930Z,21.57
2018-12-07T01:04:51.161Z,23.00
2018-12-07T01:07:19.462Z,19.83
2018-12-07T01:09:47.748Z,19.60
2018-12-07T01:12:16.149Z,19.07
2018-12-07T01:14:44.395Z,17.73
2018-12-07T01:17:12.637Z,17.23
2018-12-07T01:19:40.898Z,15.90
2018-12-07T01:22:09.154Z,15.53
2018-12-07T01:24:37.422Z,16.50
2018-12-07T01:27:05.710Z,17.07
2018-12-07T01:29:33.929Z,16.17
2018-12-07T01:32:02.387Z,15.10
2018-12-07T01:34:30.658Z,17.00
2018-12-07T01:36:58.994Z,15.37
2018-12-07T01:39:27.209Z,13.67
2018-12-07T01:41:55.527Z,14.47
2018-12-07T01:44:23.799Z,12.23
2018-12-07T01:46:52.059Z,11.43
2018-12-07T01:49:20.284Z,11.07
2018-12-07T01:51:48.558Z,10.80
2018-12-07T01:54:16.813Z,8.90
2018-12-07T01:56:45.025Z,9.37
2018-12-07T01:59:13.290Z,9.23
2018-12-07T02:01:42.316Z,10.10
2018-12-07T02:04:10.590Z,11.07
2018-12-07T02:06:38.934Z,11.60
2018-12-07T02:09:07.699Z,11.67
2018-12-07T02:11:36.227Z,12.47
2018-12-07T02:14:05.548Z,10.33
2018-12-07T02:16:34.025Z,11.40
2018-12-07T02:19:02.334Z,10.73
2018-12-07T02:21:30.567Z,9.90
2018-12-07T02:23:58.776Z,8.70
2018-12-07T02:26:27.095Z,8.90
2018-12-07T02:28:55.357Z,8.57
2018-12-07T02:31:23.663Z,8.30
2018-12-07T02:33:52.129Z,7.63
2018-12-07T02:36:20.352Z,7.63
2018-12-07T02:38:48.586Z,7.47
2018-12-07T02:41:16.810Z,7.33
2018-12-07T02:43:45.037Z,7.73
2018-12-07T02:46:13.255Z,7.20
2018-12-07T02:48:41.517Z,7.30
2018-12-07T02:51:09.753Z,6.93
2018-12-07T02:53:38.003Z,7.23
2018-12-07T02:56:06.297Z,7.73
2018-12-07T02:58:34.490Z,7.13
2018-12-07T03:01:02.791Z,7.23
2018-12-07T03:03:30.999Z,6.90
2018-12-07T03:05:59.239Z,7.50
2018-12-07T03:08:27.477Z,7.07
2018-12-07T03:10:55.755Z,7.53
2018-12-07T03:13:24.033Z,6.90
2018-12-07T03:15:52.380Z,7.40
2018-12-07T03:18:28.937Z,8.23
2018-12-07T03:20:57.275Z,7.63
2018-12-07T03:23:25.722Z,8.20
2018-12-07T03:25:54.148Z,8.93
2018-12-07T03:28:22.469Z,8.07
2018-12-07T03:30:50.785Z,8.17
2018-12-07T03:33:19.032Z,7.70
2018-12-07T03:35:47.271Z,8.43
2018-12-07T03:38:15.591Z,7.17
2018-12-07T03:40:43.846Z,7.70
2018-12-07T03:43:12.096Z,7.03
2018-12-07T03:45:40.363Z,7.50
2018-12-07T03:48:08.552Z,7.63
2018-12-07T03:50:36.748Z,8.37
2018-12-07T03:53:04.975Z,8.13
2018-12-07T03:55:33.409Z,7.60
2018-12-07T03:58:01.652Z,8.63
2018-12-07T04:00:29.981Z,8.83
2018-12-07T04:02:58.226Z,9.30
2018-12-07T04:05:26.438Z,9.23
2018-12-07T04:07:54.672Z,9.87
2018-12-07T04:10:22.921Z,10.50
2018-12-07T04:12:51.246Z,11.30
2018-12-07T04:15:19.608Z,10.57
2018-12-07T04:17:47.820Z,10.87
2018-12-07T04:20:16.059Z,11.30
2018-12-07T04:22:44.275Z,10.83
2018-12-07T04:25:12.540Z,11.40
2018-12-07T04:27:40.775Z,11.73
2018-12-07T04:30:23.475Z,11.73
2018-12-07T04:32:51.725Z,11.83
2018-12-07T04:35:19.980Z,11.50
2018-12-07T04:37:48.336Z,11.80
2018-12-07T04:40:16.653Z,12.03
2018-12-07T04:42:44.907Z,12.03
2018-12-07T04:45:13.223Z,10.93
2018-12-07T04:47:41.522Z,11.83
2018-12-07T04:50:09.852Z,11.33
2018-12-07T04:52:38.177Z,11.03
2018-12-07T04:55:06.527Z,11.27
2018-12-07T04:57:34.975Z,11.50
2018-12-07T05:00:03.300Z,11.73
2018-12-07T05:02:31.553Z,10.90
2018-12-07T05:04:59.875Z,12.53
2018-12-07T05:07:28.111Z,11.43
2018-12-07T05:09:56.343Z,10.77
2018-12-07T05:12:24.683Z,10.77
2018-12-07T05:14:52.931Z,10.67
2018-12-07T05:17:21.291Z,10.77
2018-12-07T05:19:49.569Z,11.03
2018-12-07T05:22:17.816Z,10.63
2018-12-07T05:24:46.054Z,10.17
2018-12-07T05:27:14.302Z,10.30
2018-12-07T05:29:42.581Z,11.40
2018-12-07T05:32:10.820Z,9.87
2018-12-07T05:34:39.132Z,11.00
2018-12-07T05:37:07.439Z,11.10
2018-12-07T05:39:58.090Z,11.77
2018-12-07T05:42:26.468Z,11.30
2018-12-07T05:44:54.707Z,12.30
2018-12-07T05:47:23.019Z,11.23
2018-12-07T05:49:51.263Z,11.97
2018-12-07T05:52:19.574Z,11.77
2018-12-07T05:54:47.803Z,12.33
2018-12-07T05:57:16.074Z,11.47
2018-12-07T05:59:44.331Z,11.33
2018-12-07T06:02:12.621Z,12.50
2018-12-07T06:04:40.850Z,12.43
2018-12-07T06:07:09.070Z,12.43
2018-12-07T06:09:37.347Z,13.73
2018-12-07T06:12:05.764Z,13.40
2018-12-07T06:14:34.120Z,12.63
2018-12-07T06:17:02.470Z,12.73
2018-12-07T06:19:30.872Z,12.97
2018-12-07T06:21:59.154Z,13.70
2018-12-07T06:24:27.409Z,13.30
2018-12-07T06:26:55.647Z,13.23
2018-12-07T06:29:23.870Z,13.37
2018-12-07T06:31:52.113Z,12.67
2018-12-07T06:34:20.423Z,14.00
2018-12-07T06:36:48.674Z,14.13
2018-12-07T06:39:16.907Z,13.47
2018-12-07T06:41:45.191Z,13.30
2018-12-07T06:44:13.502Z,14.23
2018-12-07T06:46:41.747Z,14.13
2018-12-07T06:49:13.987Z,13.90
2018-12-07T06:51:43.505Z,13.50
2018-12-07T06:54:11.908Z,13.50
2018-12-07T06:56:40.224Z,12.97
2018-12-07T06:59:08.468Z,12.90
2018-12-07T07:01:36.798Z,12.93
2018-12-07T07:04:05.183Z,12.60
2018-12-07T07:06:33.449Z,12.27
2018-12-07T07:09:01.775Z,12.97
2018-12-07T07:11:30.025Z,12.57
2018-12-07T07:13:58.262Z,10.33
2018-12-07T07:16:26.549Z,9.90
2018-12-07T07:19:17.115Z,9.53
2018-12-07T07:21:45.383Z,8.70
2018-12-07T07:24:13.694Z,8.47
2018-12-07T07:26:42.018Z,8.80
2018-12-07T07:29:10.299Z,8.27
2018-12-07T07:31:43.435Z,8.43
2018-12-07T07:34:08.895Z,8.53
2018-12-07T07:36:37.248Z,7.40
2018-12-07T07:39:06.896Z,7.10
2018-12-07T07:41:35.194Z,7.60
2018-12-07T07:44:03.620Z,7.13
2018-12-07T07:46:31.957Z,7.43
2018-12-07T07:49:00.329Z,6.90
2018-12-07T07:51:28.545Z,7.10
2018-12-07T07:53:56.777Z,6.43
2018-12-07T07:56:25.013Z,7.27
2018-12-07T07:58:53.290Z,7.23
2018-12-07T08:01:21.522Z,5.80
2018-12-07T08:03:49.744Z,6.43
2018-12-07T08:09:10.816Z,6.80
2018-12-07T08:11:39.188Z,6.23
2018-12-07T08:16:59.913Z,6.47
2018-12-07T08:19:28.160Z,6.27
2018-12-07T08:21:56.409Z,5.57
2018-12-07T08:24:24.657Z,5.67
2018-12-07T08:26:52.885Z,5.87
2018-12-07T08:32:14.164Z,5.10
2018-12-07T08:34:42.511Z,5.27
2018-12-07T08:37:10.784Z,4.90
2018-12-07T08:39:39.135Z,4.77
2018-12-07T08:42:07.497Z,5.00
2018-12-07T08:44:35.883Z,5.30
2018-12-07T08:47:04.348Z,5.00
2018-12-07T08:49:37.855Z,4.90
2018-12-07T08:52:06.402Z,5.50
2018-12-07T08:54:34.739Z,5.20
2018-12-07T08:57:19.484Z,5.30
2018-12-07T08:59:47.813Z,5.03
2018-12-07T09:02:16.056Z,5.33
2018-12-07T09:04:44.307Z,5.20
2018-12-07T09:07:12.553Z,5.47
2018-12-07T09:09:40.814Z,4.60
2018-12-07T09:12:09.042Z,5.50
2018-12-07T09:14:37.271Z,5.20
2018-12-07T09:17:05.674Z,5.60
2018-12-07T09:19:34.113Z,4.50
2018-12-07T09:22:02.462Z,4.93
2018-12-07T09:24:30.710Z,4.80
2018-12-07T09:27:14.976Z,5.27
2018-12-07T09:29:43.219Z,5.17
2018-12-07T09:32:11.486Z,5.43
2018-12-07T09:34:39.809Z,4.83
2018-12-07T09:37:08.088Z,5.30
2018-12-07T09:39:36.331Z,5.37
2018-12-07T09:42:04.669Z,5.40
2018-12-07T09:44:33.019Z,4.70
2018-12-07T09:47:01.294Z,4.50
2018-12-07T09:49:29.537Z,4.73
2018-12-07T09:51:57.821Z,4.70
2018-12-07T09:57:18.647Z,3.60
2018-12-07T10:02:40.092Z,4.33
2018-12-07T10:05:08.513Z,3.40
2018-12-07T10:07:36.785Z,2.77
2018-12-07T10:10:05.190Z,2.77
2018-12-07T10:12:33.417Z,2.20
2018-12-07T10:15:01.682Z,2.13
2018-12-07T10:17:30.051Z,2.00
2018-12-07T10:19:58.443Z,2.13
2018-12-07T10:22:26.669Z,2.07
2018-12-07T10:27:47.427Z,1.90
2018-12-07T10:30:15.702Z,1.80
2018-12-07T10:32:43.972Z,1.93
2018-12-07T10:35:12.181Z,1.67
2018-12-07T10:37:40.459Z,1.20
2018-12-07T10:40:08.871Z,1.70
2018-12-07T10:42:37.121Z,1.60
2018-12-07T10:45:06.077Z,1.77
2018-12-07T10:47:34.402Z,1.60
2018-12-07T10:50:02.664Z,2.20
2018-12-07T10:52:30.909Z,2.13
2018-12-07T10:54:59.162Z,1.80
2018-12-07T10:57:27.402Z,2.10
2018-12-07T10:59:55.691Z,1.93
2018-12-07T11:02:29.338Z,2.00
2018-12-07T11:05:02.870Z,1.70
2018-12-07T11:07:36.598Z,2.50
2018-12-07T11:10:10.447Z,2.10
2018-12-07T11:12:44.190Z,2.03
2018-12-07T11:15:17.694Z,2.77
2018-12-07T11:17:51.463Z,1.93
2018-12-07T11:20:25.032Z,2.33
2018-12-07T11:22:58.649Z,2.40
2018-12-07T11:25:32.342Z,2.50
2018-12-07T11:28:06.164Z,2.40
2018-12-07T11:31:37.370Z,2.40
2018-12-07T11:34:12.796Z,2.00
2018-12-07T11:36:41.030Z,1.73
2018-12-07T11:39:09.782Z,1.70
2018-12-07T11:41:37.996Z,2.60
2018-12-07T11:44:06.367Z,2.87
2018-12-07T11:46:34.593Z,2.63
2018-12-07T11:49:02.797Z,2.40
2018-12-07T11:51:31.866Z,2.33
2018-12-07T11:54:00.103Z,2.17
2018-12-07T11:56:47.310Z,1.93
2018-12-07T11:59:15.543Z,2.20
2018-12-07T12:01:44.890Z,2.40
2018-12-07T12:04:13.520Z,2.47
2018-12-07T12:06:41.786Z,2.30
2018-12-07T12:09:10.294Z,2.47
2018-12-07T12:11:38.577Z,2.60
2018-12-07T12:14:06.858Z,2.13
2018-12-07T12:16:35.122Z,2.07
2018-12-07T12:19:03.407Z,1.73
2018-12-07T12:21:31.670Z,1.87
2018-12-07T12:23:59.915Z,2.30
2018-12-07T12:26:28.144Z,4.03
2018-12-07T12:28:56.460Z,3.13
2018-12-07T12:31:24.826Z,2.10
2018-12-07T12:33:53.053Z,2.00
2018-12-07T13:22:11.536Z,5.43
2018-12-07T13:24:39.787Z,5.83
2018-12-07T13:27:08.073Z,6.10
2018-12-07T13:29:36.580Z,6.33
2018-12-07T13:32:05.341Z,7.40
2018-12-07T13:34:33.633Z,7.67
2018-12-07T13:37:01.894Z,7.47
2018-12-07T13:39:30.418Z,6.30
2018-12-07T13:41:58.940Z,6.17
2018-12-07T13:44:27.521Z,6.50
2018-12-07T13:49:51.370Z,6.00
2018-12-07T13:52:19.627Z,6.50
2018-12-07T13:54:47.942Z,6.70
2018-12-07T14:00:09.660Z,6.03
2018-12-07T14:02:38.079Z,5.53
2018-12-07T14:05:06.703Z,5.57
2018-12-07T14:07:35.077Z,5.87
2018-12-07T14:10:03.693Z,6.83
2018-12-07T14:15:25.537Z,6.03
2018-12-07T14:17:54.186Z,5.83
2018-12-07T14:20:22.593Z,6.23
2018-12-07T14:22:51.229Z,6.27
2018-12-07T14:25:19.767Z,6.70
2018-12-07T14:27:48.137Z,6.87
2018-12-07T14:30:16.457Z,7.23
2018-12-07T14:32:44.952Z,6.90
2018-12-07T14:35:13.633Z,7.80
2018-12-07T14:37:42.020Z,8.43
2018-12-07T14:40:11.950Z,7.60
2018-12-07T14:43:43.734Z,7.10
2018-12-07T14:46:12.039Z,7.57
2018-12-07T14:48:40.299Z,8.07
2018-12-07T14:51:08.918Z,8.13
2018-12-07T14:53:37.368Z,8.37
2018-12-07T14:56:05.860Z,7.80
2018-12-07T14:58:34.562Z,8.90
2018-12-07T15:01:03.163Z,8.53
2018-12-07T15:03:31.544Z,9.10
2018-12-07T15:05:59.964Z,8.00
2018-12-07T15:08:28.429Z,8.17
2018-12-07T15:10:57.018Z,9.07
2018-12-07T15:13:25.554Z,9.67
2018-12-07T15:15:53.874Z,9.30
2018-12-07T15:18:22.475Z,9.07
2018-12-07T15:20:54.326Z,10.07
2018-12-07T15:23:22.666Z,9.90
2018-12-07T15:26:07.809Z,10.33
2018-12-07T15:28:36.611Z,10.43
2018-12-07T15:31:05.204Z,11.13
2018-12-07T15:33:33.807Z,12.17
2018-12-07T15:36:02.275Z,11.93
2018-12-07T15:38:30.832Z,11.90
2018-12-07T15:41:00.687Z,12.37
2018-12-07T15:43:29.201Z,13.10
2018-12-07T15:45:57.637Z,14.33
2018-12-07T15:48:26.015Z,14.93
2018-12-07T15:50:54.496Z,14.53
2018-12-07T15:53:23.010Z,14.60
2018-12-07T15:55:51.492Z,14.83
2018-12-07T15:58:20.069Z,15.37
2018-12-07T16:00:48.545Z,15.33
2018-12-07T16:06:09.802Z,15.27
2018-12-07T16:08:38.320Z,15.87
2018-12-07T16:11:06.932Z,16.33
2018-12-07T16:13:35.384Z,16.50
2018-12-07T16:16:03.761Z,16.53
2018-12-07T16:18:32.702Z,14.47
2018-12-07T16:21:01.340Z,16.13
2018-12-07T16:23:29.857Z,15.43
2018-12-07T16:25:58.821Z,13.23
2018-12-07T16:28:27.711Z,14.77
2018-12-07T16:30:56.536Z,14.33
2018-12-07T16:33:25.073Z,14.73
2018-12-07T16:35:53.463Z,13.10
2018-12-07T16:38:22.009Z,14.87
2018-12-07T16:40:50.491Z,13.60
2018-12-07T16:43:19.053Z,13.97
2018-12-07T16:45:47.607Z,16.67
2018-12-07T16:48:16.310Z,11.77
2018-12-07T16:50:44.735Z,16.13
2018-12-07T16:53:13.359Z,13.73
2018-12-07T16:55:41.853Z,12.90
2018-12-07T16:58:10.697Z,12.30
2018-12-07T17:00:39.119Z,11.93
2018-12-07T17:03:07.414Z,12.07
2018-12-07T17:05:35.708Z,9.40
2018-12-07T17:08:04.130Z,10.20
2018-12-07T17:10:32.606Z,9.80
2018-12-07T17:13:01.025Z,9.43
2018-12-07T17:15:29.793Z,8.90
2018-12-07T17:17:58.276Z,7.90
2018-12-07T17:20:26.708Z,6.83
2018-12-07T17:22:55.272Z,7.50
2018-12-07T17:25:23.752Z,7.27
2018-12-07T17:27:52.311Z,6.70
2018-12-07T17:30:21.113Z,5.70
2018-12-07T17:32:49.511Z,6.60
2018-12-07T17:35:17.857Z,7.07
2018-12-07T17:37:46.274Z,5.60
2018-12-07T17:40:14.568Z,5.77
2018-12-07T17:42:42.882Z,6.43
2018-12-07T17:45:11.302Z,6.57
2018-12-07T17:47:40.010Z,8.13
2018-12-07T17:50:09.262Z,7.83
2018-12-07T17:52:38.016Z,8.23
2018-12-07T17:55:06.513Z,7.50
2018-12-07T17:57:34.875Z,6.70
2018-12-07T18:00:03.480Z,6.40
2018-12-07T18:02:32.112Z,6.33
2018-12-07T18:05:00.579Z,6.70
2018-12-07T18:07:29.126Z,6.30
2018-12-07T18:09:57.876Z,7.83
2018-12-07T18:12:26.347Z,5.90
2018-12-07T18:14:54.989Z,6.43
2018-12-07T18:17:23.453Z,5.20
2018-12-07T18:19:53.382Z,5.30
2018-12-07T18:22:22.000Z,4.53
2018-12-07T18:24:50.700Z,3.90
2018-12-07T18:27:19.257Z,3.70
2018-12-07T18:29:47.723Z,4.23
2018-12-07T18:32:15.944Z,4.40
2018-12-07T18:34:44.186Z,3.80
2018-12-07T18:37:12.604Z,4.43
2018-12-07T18:39:41.190Z,5.17
2018-12-07T18:42:09.767Z,5.33
2018-12-07T18:44:38.291Z,4.53
2018-12-07T18:47:06.955Z,4.40
2018-12-07T18:49:35.682Z,3.13
2018-12-07T18:52:04.154Z,3.83
2018-12-07T18:54:32.691Z,4.00
2018-12-07T18:57:01.228Z,3.73
2018-12-07T18:59:29.587Z,3.97
2018-12-07T19:01:58.312Z,4.17
2018-12-07T19:04:26.802Z,3.97
2018-12-07T19:06:55.536Z,3.77
2018-12-07T19:09:23.971Z,3.53
2018-12-07T19:11:52.805Z,3.50
2018-12-07T19:14:21.391Z,3.47
2018-12-07T19:16:49.937Z,3.83
2018-12-07T19:19:18.290Z,3.30
2018-12-07T19:21:46.578Z,3.87
2018-12-07T19:24:15.027Z,2.90
2018-12-07T19:26:43.571Z,3.07
2018-12-07T19:29:12.010Z,3.10
2018-12-07T19:31:40.566Z,3.60
2018-12-07T19:34:09.115Z,3.37
2018-12-07T19:36:37.695Z,3.47
2018-12-07T19:39:09.144Z,3.17
2018-12-07T19:41:37.796Z,3.23
2018-12-07T19:44:06.769Z,3.57
2018-12-07T19:46:35.239Z,3.77
2018-12-07T19:49:03.586Z,5.10
2018-12-07T19:51:31.915Z,4.03
2018-12-07T19:54:00.296Z,3.10
2018-12-07T19:56:28.733Z,4.47
2018-12-07T19:58:57.059Z,4.30
2018-12-07T20:01:25.431Z,5.27
2018-12-07T20:03:54.109Z,4.30
2018-12-07T20:06:22.751Z,4.63
2018-12-07T20:08:51.152Z,4.20
2018-12-07T20:11:19.877Z,4.20
2018-12-07T20:13:49.124Z,4.47
2018-12-07T20:16:17.609Z,4.00
2018-12-07T20:18:46.275Z,3.43
2018-12-07T20:21:15.070Z,8.07
2018-12-07T20:23:43.640Z,3.50
2018-12-07T20:26:12.278Z,1.87
2018-12-07T20:28:40.730Z,1.33
2018-12-07T20:31:09.145Z,1.40
2018-12-07T20:33:37.711Z,1.40
2018-12-07T20:36:06.449Z,2.13
2018-12-07T20:38:35.052Z,2.47
2018-12-07T20:41:03.496Z,2.37
2018-12-07T20:43:31.865Z,1.83
2018-12-07T20:46:01.944Z,2.27
2018-12-07T20:48:30.570Z,2.07
2018-12-07T20:50:59.285Z,1.80
2018-12-07T20:53:28.167Z,3.13
2018-12-07T20:55:56.575Z,2.90
2018-12-07T20:58:25.167Z,2.37
2018-12-07T21:00:59.272Z,2.83
2018-12-07T21:03:51.380Z,3.10
2018-12-07T21:06:36.054Z,2.93
2018-12-07T21:09:24.183Z,2.40
2018-12-07T21:12:02.409Z,3.00
2018-12-07T21:14:50.158Z,2.27
2018-12-07T21:17:26.594Z,2.93
2018-12-07T21:20:01.381Z,2.33
2018-12-07T21:25:23.147Z,2.50
2018-12-07T21:30:55.459Z,2.20
2018-12-07T21:33:31.388Z,3.03
2018-12-07T21:36:33.603Z,2.87
2018-12-07T21:39:02.100Z,2.87
2018-12-07T21:41:30.792Z,3.10
2018-12-07T21:43:59.269Z,2.97
2018-12-07T21:46:28.112Z,2.83
2018-12-07T21:48:56.622Z,2.83
2018-12-07T21:51:30.955Z,3.43
2018-12-07T21:53:59.623Z,3.00
2018-12-07T21:56:28.211Z,2.60
2018-12-07T21:58:56.913Z,3.17
2018-12-07T22:01:25.514Z,2.87
2018-12-07T22:03:54.104Z,3.03
2018-12-07T22:06:22.756Z,2.53
2018-12-07T22:08:51.252Z,2.33
2018-12-07T22:11:19.729Z,3.37
2018-12-07T22:13:48.416Z,2.70
2018-12-07T22:19:09.859Z,3.10
2018-12-07T22:21:38.371Z,3.17
2018-12-07T22:24:06.912Z,2.80
2018-12-07T22:26:35.612Z,2.57
2018-12-07T22:29:04.107Z,2.00
2018-12-07T22:31:42.954Z,2.53
2018-12-07T22:34:11.710Z,3.70
2018-12-07T22:36:40.264Z,2.13
2018-12-07T22:39:09.028Z,2.67
2018-12-07T22:41:37.523Z,2.33
2018-12-07T22:44:05.863Z,2.03
2018-12-07T22:46:34.245Z,2.63
2018-12-07T22:49:02.792Z,3.07
2018-12-07T22:51:31.128Z,2.77
2018-12-07T22:53:59.443Z,3.07
2018-12-07T22:56:27.709Z,2.70
2018-12-07T22:58:55.988Z,2.20
2018-12-07T23:01:24.468Z,2.00
2018-12-07T23:03:52.764Z,2.37
2018-12-07T23:06:21.017Z,2.20
2018-12-07T23:08:49.386Z,2.07
2018-12-07T23:11:17.669Z,1.87
2018-12-07T23:13:46.016Z,3.13
2018-12-07T23:16:14.391Z,2.30
2018-12-07T23:18:42.717Z,2.43
2018-12-07T23:21:11.120Z,2.00
2018-12-07T23:23:40.248Z,2.67
2018-12-07T23:26:08.574Z,2.60
2018-12-07T23:28:36.971Z,2.00
2018-12-07T23:31:05.248Z,2.63
2018-12-07T23:33:33.563Z,2.90
2018-12-07T23:36:01.882Z,3.43
2018-12-07T23:38:30.346Z,2.83
2018-12-07T23:40:58.615Z,2.80
2018-12-07T23:43:26.849Z,3.27
2018-12-07T23:45:55.265Z,3.10
2018-12-07T23:48:23.748Z,3.00
2018-12-07T23:50:51.995Z,4.10
2018-12-07T23:53:20.222Z,3.87
2018-12-07T23:55:48.493Z,3.20
2018-12-07T23:58:16.859Z,3.97
